Time;durP1;ratioP1;P1;durP2;ratioP2;P2;SDS_P1;SDS_P2;PMS_P1;PMS_P2;Temp;Humidity;BMP_temperature;BMP_pressure;BME280_temperature;BME280_humidity;BME280_pressure;Samples;Min_cycle;Max_cycle;Signal;HPM_P1;HPM_P2
2023/06/23 00:01:32;;;;;;;22.10;10.73;;;;;;;;;;6164827;23;20008;-95
2023/06/23 00:04:04;;;;;;;28.10;10.25;;;;;;;;;;6216418;23;20009;-94
2023/06/23 00:06:30;;;;;;;20.70;9.95;;;;;;;;;;6167010;23;20331;-94
2023/06/23 00:08:57;;;;;;;20.40;10.52;;;;;;;;;;6194647;23;20009;-93
2023/06/23 00:11:23;;;;;;;21.30;10.15;;;;;;;;;;6169459;23;20013;-94
2023/06/23 00:13:49;;;;;;;21.88;9.60;;;;;;;;;;6171319;23;20039;-95
2023/06/23 00:16:15;;;;;;;19.00;9.13;;;;;;;;;;6196232;23;20009;-95
2023/06/23 00:18:42;;;;;;;20.33;8.45;;;;;;;;;;6196838;23;19997;-95
2023/06/23 00:21:09;;;;;;;20.10;9.23;;;;;;;;;;6198802;23;20001;-95
2023/06/23 00:23:35;;;;;;;21.90;8.98;;;;;;;;;;6204627;23;20001;-95
2023/06/23 00:26:03;;;;;;;20.95;8.70;;;;;;;;;;6207870;23;20005;-95
2023/06/23 00:28:29;;;;;;;16.10;9.35;;;;;;;;;;6208215;23;20018;-96
2023/06/23 00:30:56;;;;;;;18.88;8.48;;;;;;;;;;6182452;23;20020;-95
2023/06/23 00:33:22;;;;;;;22.63;8.13;;;;;;;;;;6179089;23;20020;-96
2023/06/23 00:35:48;;;;;;;14.85;7.53;;;;;;;;;;6204950;23;20012;-95
2023/06/23 00:38:14;;;;;;;18.05;7.53;;;;;;;;;;6205051;23;20008;-95
2023/06/23 00:40:41;;;;;;;10.77;6.93;;;;;;;;;;6198498;23;20394;-95
2023/06/23 00:43:08;;;;;;;10.98;6.13;;;;;;;;;;6199717;23;20001;-95
2023/06/23 00:45:34;;;;;;;14.55;6.65;;;;;;;;;;6196248;23;20518;-94
2023/06/23 00:48:03;;;;;;;13.77;6.50;;;;;;;;;;6197354;22;20025;-91
2023/06/23 00:50:30;;;;;;;11.80;6.00;;;;;;;;;;6191371;23;20059;-94
2023/06/23 00:52:56;;;;;;;17.10;6.13;;;;;;;;;;6189428;23;20066;-94
2023/06/23 00:55:23;;;;;;;17.05;7.28;;;;;;;;;;6163450;23;20012;-93
2023/06/23 00:57:50;;;;;;;15.48;6.95;;;;;;;;;;6189448;23;20067;-95
2023/06/23 01:00:20;;;;;;;10.15;5.75;;;;;;;;;;6164424;23;20009;-94
2023/06/23 01:02:49;;;;;;;12.40;5.47;;;;;;;;;;6189422;23;20421;-94
2023/06/23 01:05:26;;;;;;;12.85;5.63;;;;;;;;;;6163666;23;20013;-92
2023/06/23 01:08:11;;;;;;;13.73;5.18;;;;;;;;;;6188203;23;20063;-93
2023/06/23 01:10:51;;;;;;;8.38;4.95;;;;;;;;;;6213519;23;20442;-95
2023/06/23 01:13:26;;;;;;;10.88;5.03;;;;;;;;;;6188155;23;20111;-95
2023/06/23 01:16:01;;;;;;;10.75;4.90;;;;;;;;;;6187522;23;20016;-95
2023/06/23 01:18:27;;;;;;;11.70;4.82;;;;;;;;;;6185503;23;20091;-94
2023/06/23 01:20:53;;;;;;;24.60;5.60;;;;;;;;;;6187195;23;20487;-95
2023/06/23 01:23:29;;;;;;;12.20;4.45;;;;;;;;;;6185824;23;20009;-95
2023/06/23 01:25:55;;;;;;;10.15;4.72;;;;;;;;;;6185682;23;20709;-94
2023/06/23 01:28:27;;;;;;;9.65;4.68;;;;;;;;;;6185648;23;20035;-94
2023/06/23 01:30:54;;;;;;;10.65;4.75;;;;;;;;;;6184314;23;20009;-94
2023/06/23 01:33:39;;;;;;;10.38;4.97;;;;;;;;;;6161359;23;20013;-94
2023/06/23 01:36:09;;;;;;;16.20;5.50;;;;;;;;;;6184596;23;20095;-93
2023/06/23 01:38:44;;;;;;;15.82;4.50;;;;;;;;;;6185915;23;20095;-94
2023/06/23 01:41:13;;;;;;;8.40;4.72;;;;;;;;;;6183903;23;20469;-95
2023/06/23 01:43:41;;;;;;;16.60;5.07;;;;;;;;;;6184760;23;20194;-93
2023/06/23 01:46:15;;;;;;;12.13;4.60;;;;;;;;;;6184502;23;20394;-94
2023/06/23 01:48:43;;;;;;;11.27;4.95;;;;;;;;;;6187693;22;20482;-94
2023/06/23 01:51:10;;;;;;;12.80;4.60;;;;;;;;;;6185165;23;20492;-94
2023/06/23 01:53:38;;;;;;;10.77;4.53;;;;;;;;;;6184566;23;20460;-94
2023/06/23 01:56:06;;;;;;;11.13;4.72;;;;;;;;;;6184531;23;20036;-94
2023/06/23 01:58:33;;;;;;;9.40;3.75;;;;;;;;;;6183443;23;20394;-94
2023/06/23 02:01:00;;;;;;;16.95;4.47;;;;;;;;;;6210989;23;20007;-94
2023/06/23 02:03:27;;;;;;;11.13;5.07;;;;;;;;;;6158937;23;20039;-94
2023/06/23 02:05:55;;;;;;;6.72;4.20;;;;;;;;;;6185259;23;20229;-94
2023/06/23 02:08:23;;;;;;;12.50;4.28;;;;;;;;;;6183785;23;20043;-94
2023/06/23 02:10:50;;;;;;;11.02;4.90;;;;;;;;;;6181980;23;20091;-94
2023/06/23 02:13:17;;;;;;;10.45;5.03;;;;;;;;;;6184293;23;20008;-94
2023/06/23 02:15:44;;;;;;;13.30;5.05;;;;;;;;;;6185659;23;20039;-94
2023/06/23 02:18:11;;;;;;;11.23;4.20;;;;;;;;;;6183516;23;20004;-94
2023/06/23 02:20:39;;;;;;;6.38;4.00;;;;;;;;;;6160276;23;20019;-94
2023/06/23 02:23:05;;;;;;;11.13;4.03;;;;;;;;;;6210425;23;20004;-93
2023/06/23 02:25:32;;;;;;;10.05;4.43;;;;;;;;;;6183526;23;20451;-94
2023/06/23 02:27:59;;;;;;;10.20;4.30;;;;;;;;;;6183719;23;20434;-95
2023/06/23 02:30:26;;;;;;;8.77;4.03;;;;;;;;;;6161442;23;20012;-95
2023/06/23 02:32:52;;;;;;;10.07;3.90;;;;;;;;;;6210248;23;20000;-94
2023/06/23 02:35:19;;;;;;;8.13;4.07;;;;;;;;;;6158515;23;20384;-94
2023/06/23 02:38:05;;;;;;;8.98;4.30;;;;;;;;;;6159872;23;20012;-94
2023/06/23 02:40:35;;;;;;;13.35;4.10;;;;;;;;;;6182886;23;20013;-95
2023/06/23 02:43:05;;;;;;;9.15;3.88;;;;;;;;;;6209662;23;20015;-94
2023/06/23 02:45:33;;;;;;;7.40;4.00;;;;;;;;;;6211886;23;20505;-94
2023/06/23 02:48:05;;;;;;;11.07;4.68;;;;;;;;;;6187841;22;20485;-95
2023/06/23 02:50:36;;;;;;;14.48;3.97;;;;;;;;;;6183605;23;20015;-95
2023/06/23 02:53:09;;;;;;;9.45;4.18;;;;;;;;;;6184826;23;20012;-95
2023/06/23 02:55:44;;;;;;;8.50;4.28;;;;;;;;;;6210971;23;20226;-95
2023/06/23 02:58:12;;;;;;;7.90;4.38;;;;;;;;;;6182459;23;20094;-95
2023/06/23 03:00:39;;;;;;;7.18;4.13;;;;;;;;;;6185552;23;20486;-95
2023/06/23 03:03:07;;;;;;;5.07;4.03;;;;;;;;;;6185782;23;20005;-95
2023/06/23 03:05:33;;;;;;;10.80;4.38;;;;;;;;;;6211900;23;20076;-95
2023/06/23 03:08:00;;;;;;;8.93;4.30;;;;;;;;;;6184965;23;20450;-94
2023/06/23 03:10:30;;;;;;;11.23;4.70;;;;;;;;;;6186359;23;20009;-94
2023/06/23 03:12:56;;;;;;;11.32;5.43;;;;;;;;;;6162789;23;20008;-95
2023/06/23 03:15:22;;;;;;;9.60;4.78;;;;;;;;;;6162927;23;20016;-95
2023/06/23 03:17:49;;;;;;;10.23;4.38;;;;;;;;;;6163058;23;20040;-94
2023/06/23 03:20:15;;;;;;;9.30;4.07;;;;;;;;;;6162634;23;20009;-95
2023/06/23 03:22:49;;;;;;;7.35;4.32;;;;;;;;;;6186627;23;20012;-95
2023/06/23 03:25:17;;;;;;;10.80;4.90;;;;;;;;;;6186859;23;20059;-95
2023/06/23 03:27:44;;;;;;;9.40;4.25;;;;;;;;;;6184746;23;20008;-94
2023/06/23 03:30:13;;;;;;;14.73;4.35;;;;;;;;;;6161103;23;20008;-95
2023/06/23 03:32:47;;;;;;;12.38;4.65;;;;;;;;;;6185976;23;20086;-95
2023/06/23 03:35:15;;;;;;;6.97;4.05;;;;;;;;;;6186442;23;20080;-94
2023/06/23 03:37:52;;;;;;;6.93;4.40;;;;;;;;;;6185656;23;20062;-95
2023/06/23 03:40:21;;;;;;;8.80;4.18;;;;;;;;;;6184490;23;20420;-95
2023/06/23 03:42:48;;;;;;;10.50;4.57;;;;;;;;;;6184742;23;20008;-95
2023/06/23 03:45:16;;;;;;;9.48;4.00;;;;;;;;;;6161649;23;20009;-95
2023/06/23 03:47:44;;;;;;;9.85;4.05;;;;;;;;;;6165330;22;20028;-95
2023/06/23 03:50:12;;;;;;;12.35;4.60;;;;;;;;;;6211696;23;20008;-95
2023/06/23 03:52:39;;;;;;;10.80;4.63;;;;;;;;;;6161196;23;20008;-92
2023/06/23 03:55:07;;;;;;;13.73;4.70;;;;;;;;;;6185489;23;20387;-94
2023/06/23 03:57:34;;;;;;;12.25;4.70;;;;;;;;;;6187148;23;20313;-95
2023/06/23 04:00:03;;;;;;;9.80;4.57;;;;;;;;;;6185854;23;20048;-95
2023/06/23 04:02:31;;;;;;;8.73;4.78;;;;;;;;;;6186953;23;20016;-93
2023/06/23 04:05:00;;;;;;;9.75;5.13;;;;;;;;;;6185742;23;20426;-94
2023/06/23 04:07:29;;;;;;;11.13;5.25;;;;;;;;;;6188080;23;20085;-94
2023/06/23 04:09:56;;;;;;;12.05;5.10;;;;;;;;;;6187246;23;20017;-95
2023/06/23 04:12:22;;;;;;;6.90;4.45;;;;;;;;;;6161428;23;20017;-95
2023/06/23 04:14:52;;;;;;;10.85;4.75;;;;;;;;;;6160025;23;20017;-95
2023/06/23 04:17:20;;;;;;;10.65;5.00;;;;;;;;;;6185299;23;20008;-95
2023/06/23 04:19:48;;;;;;;7.88;4.57;;;;;;;;;;6183896;23;20071;-95
2023/06/23 04:22:17;;;;;;;11.52;5.03;;;;;;;;;;6187306;23;20068;-95
2023/06/23 04:24:43;;;;;;;7.13;4.85;;;;;;;;;;6162060;23;20009;-94
2023/06/23 04:27:18;;;;;;;14.98;4.95;;;;;;;;;;6156348;23;20013;-94
2023/06/23 04:29:46;;;;;;;11.10;5.25;;;;;;;;;;6186065;23;20466;-95
2023/06/23 04:32:13;;;;;;;5.93;4.22;;;;;;;;;;6185236;23;20017;-95
2023/06/23 04:34:39;;;;;;;10.60;5.80;;;;;;;;;;6212762;23;20012;-94
2023/06/23 04:37:07;;;;;;;9.80;5.20;;;;;;;;;;6187882;23;20008;-95
2023/06/23 04:39:57;;;;;;;9.65;4.43;;;;;;;;;;6185864;23;20059;-94
2023/06/23 04:42:26;;;;;;;6.40;4.05;;;;;;;;;;6156562;23;20001;-92
2023/06/23 04:44:54;;;;;;;14.70;4.93;;;;;;;;;;6186941;23;20000;-93
2023/06/23 04:47:22;;;;;;;9.27;5.63;;;;;;;;;;6189589;22;20114;-94
2023/06/23 04:49:53;;;;;;;13.80;6.70;;;;;;;;;;6186900;23;20187;-94
2023/06/23 04:52:21;;;;;;;12.20;5.28;;;;;;;;;;6212907;23;20110;-93
2023/06/23 04:54:48;;;;;;;11.98;4.70;;;;;;;;;;6186254;23;20020;-94
2023/06/23 04:57:20;;;;;;;17.33;4.38;;;;;;;;;;6185884;23;20017;-94
2023/06/23 04:59:51;;;;;;;11.25;4.47;;;;;;;;;;6187480;23;20008;-94
2023/06/23 05:02:19;;;;;;;21.40;7.25;;;;;;;;;;6188287;23;19996;-95
2023/06/23 05:04:46;;;;;;;12.23;5.93;;;;;;;;;;6189949;23;20004;-95
2023/06/23 05:07:17;;;;;;;9.32;5.35;;;;;;;;;;6189875;23;20394;-90
2023/06/23 05:09:47;;;;;;;12.25;5.60;;;;;;;;;;6189095;23;20015;-90
2023/06/23 05:12:19;;;;;;;8.02;4.47;;;;;;;;;;6188868;23;20018;-90
2023/06/23 05:14:50;;;;;;;12.70;5.85;;;;;;;;;;6192421;23;20375;-89
2023/06/23 05:17:21;;;;;;;15.48;5.80;;;;;;;;;;6192636;23;20004;-90
2023/06/23 05:19:53;;;;;;;9.85;5.38;;;;;;;;;;6170764;23;20076;-89
2023/06/23 05:22:26;;;;;;;7.38;5.15;;;;;;;;;;6192936;23;20005;-90
2023/06/23 05:24:55;;;;;;;14.40;5.13;;;;;;;;;;6193111;23;20365;-90
2023/06/23 05:27:35;;;;;;;;;;;;;;;;;;;;;
2023/06/23 05:30:04;;;;;;;15.48;5.88;;;;;;;;;;6224117;23;20031;-90
2023/06/23 05:32:33;;;;;;;11.43;5.45;;;;;;;;;;6193324;23;20453;-90
2023/06/23 05:35:01;;;;;;;15.85;6.32;;;;;;;;;;6199461;23;20008;-95
2023/06/23 05:37:28;;;;;;;10.55;5.40;;;;;;;;;;6193597;23;20086;-94
2023/06/23 05:39:55;;;;;;;11.25;6.00;;;;;;;;;;6191830;23;20039;-94
2023/06/23 05:42:26;;;;;;;11.32;5.65;;;;;;;;;;6190496;23;20008;-94
2023/06/23 05:44:57;;;;;;;14.52;6.25;;;;;;;;;;6167170;23;20031;-94
2023/06/23 05:47:25;;;;;;;12.05;6.05;;;;;;;;;;6173404;22;20268;-93
2023/06/23 05:50:01;;;;;;;15.05;6.38;;;;;;;;;;6219979;23;20047;-94
2023/06/23 05:52:29;;;;;;;11.68;5.88;;;;;;;;;;6218214;23;20035;-94
2023/06/23 05:55:01;;;;;;;13.88;6.78;;;;;;;;;;6216636;23;20035;-94
2023/06/23 05:57:39;;;;;;;13.07;6.05;;;;;;;;;;6218337;23;20011;-94
2023/06/23 06:00:05;;;;;;;11.85;6.70;;;;;;;;;;6219800;23;20004;-94
2023/06/23 06:02:34;;;;;;;13.35;6.32;;;;;;;;;;6216797;23;20020;-93
2023/06/23 06:05:01;;;;;;;12.65;6.10;;;;;;;;;;6243409;23;19996;-94
2023/06/23 06:07:28;;;;;;;8.90;5.57;;;;;;;;;;6216941;23;20008;-94
2023/06/23 06:09:55;;;;;;;10.52;5.65;;;;;;;;;;6192372;23;20305;-95
2023/06/23 06:12:23;;;;;;;10.52;5.95;;;;;;;;;;6215283;23;20012;-94
2023/06/23 06:14:50;;;;;;;10.15;5.78;;;;;;;;;;6215201;23;20006;-94
2023/06/23 06:17:17;;;;;;;10.55;6.00;;;;;;;;;;6216592;23;20008;-94
2023/06/23 06:19:45;;;;;;;11.90;5.28;;;;;;;;;;6215780;23;20058;-94
2023/06/23 06:22:12;;;;;;;12.20;6.45;;;;;;;;;;6217376;23;20008;-94
2023/06/23 06:24:39;;;;;;;10.55;5.70;;;;;;;;;;6216163;23;20016;-93
2023/06/23 06:27:07;;;;;;;10.90;5.90;;;;;;;;;;6215853;23;20430;-94
2023/06/23 06:29:35;;;;;;;11.20;6.05;;;;;;;;;;6191213;23;20446;-94
2023/06/23 06:32:09;;;;;;;;;;;;;;;;;;6193564;23;20028;-94
2023/06/23 06:34:35;;;;;;;17.13;5.57;;;;;;;;;;6215935;23;20272;-94
2023/06/23 06:37:02;;;;;;;8.45;5.40;;;;;;;;;;6191264;23;20473;-95
2023/06/23 06:39:30;;;;;;;8.75;5.50;;;;;;;;;;6214252;23;20008;-95
2023/06/23 06:41:58;;;;;;;10.38;5.53;;;;;;;;;;6215295;23;20000;-96
2023/06/23 06:44:25;;;;;;;7.15;5.03;;;;;;;;;;6215507;23;20004;-95
2023/06/23 06:46:52;;;;;;;11.35;4.80;;;;;;;;;;6190513;23;20020;-95
2023/06/23 06:49:33;;;;;;;12.18;5.43;;;;;;;;;;6189563;22;20103;-95
2023/06/23 06:51:59;;;;;;;11.13;5.07;;;;;;;;;;6160605;23;20531;-95
2023/06/23 06:54:26;;;;;;;13.18;4.70;;;;;;;;;;6185242;23;20067;-96
2023/06/23 06:56:55;;;;;;;6.53;4.03;;;;;;;;;;6159485;23;20070;-95
2023/06/23 06:59:21;;;;;;;8.32;4.32;;;;;;;;;;6185232;23;20024;-95
2023/06/23 07:01:47;;;;;;;7.00;3.90;;;;;;;;;;6159834;23;20009;-96
2023/06/23 07:04:14;;;;;;;8.18;4.90;;;;;;;;;;6184180;23;20008;-95
2023/06/23 07:06:41;;;;;;;6.72;3.55;;;;;;;;;;6159144;23;20013;-94
2023/06/23 07:09:07;;;;;;;7.63;4.03;;;;;;;;;;6160892;23;20012;-95
2023/06/23 07:11:35;;;;;;;11.50;4.03;;;;;;;;;;6184659;23;20004;-95
2023/06/23 07:14:03;;;;;;;9.05;4.25;;;;;;;;;;6185273;23;20466;-95
2023/06/23 07:16:33;;;;;;;11.18;4.80;;;;;;;;;;6184783;23;20030;-96
2023/06/23 07:18:59;;;;;;;5.00;3.13;;;;;;;;;;6160307;23;20019;-95
2023/06/23 07:21:25;;;;;;;9.40;3.92;;;;;;;;;;6182807;23;20036;-95
2023/06/23 07:23:51;;;;;;;7.30;3.85;;;;;;;;;;6159869;23;20013;-95
2023/06/23 07:26:18;;;;;;;8.20;4.15;;;;;;;;;;6184184;23;20031;-94
2023/06/23 07:28:44;;;;;;;5.93;3.63;;;;;;;;;;6160040;23;20477;-94
2023/06/23 07:31:10;;;;;;;4.63;3.08;;;;;;;;;;6160485;23;20019;-94
2023/06/23 07:33:36;;;;;;;7.03;3.40;;;;;;;;;;6160100;23;20013;-94
2023/06/23 07:36:03;;;;;;;9.68;3.47;;;;;;;;;;6158920;23;20477;-94
2023/06/23 07:38:29;;;;;;;5.00;3.47;;;;;;;;;;6158979;23;20013;-94
2023/06/23 07:41:08;;;;;;;7.55;3.45;;;;;;;;;;6158416;23;20402;-94
2023/06/23 07:43:35;;;;;;;6.20;3.13;;;;;;;;;;6183985;23;20335;-94
2023/06/23 07:46:04;;;;;;;6.40;3.42;;;;;;;;;;6160770;23;20087;-95
2023/06/23 07:48:43;;;;;;;5.78;3.53;;;;;;;;;;6192208;22;20023;-95
2023/06/23 07:51:09;;;;;;;6.05;3.22;;;;;;;;;;6210795;23;20512;-95
2023/06/23 07:53:38;;;;;;;6.85;2.67;;;;;;;;;;6159667;23;20013;-94
2023/06/23 07:56:07;;;;;;;3.95;2.95;;;;;;;;;;6161250;23;20015;-94
2023/06/23 07:58:33;;;;;;;6.10;3.45;;;;;;;;;;6162147;23;20012;-95
2023/06/23 08:01:00;;;;;;;7.30;3.10;;;;;;;;;;6161888;23;20038;-95
2023/06/23 08:03:26;;;;;;;3.97;3.28;;;;;;;;;;6160652;23;20009;-94
2023/06/23 08:05:53;;;;;;;5.70;2.97;;;;;;;;;;6186651;23;20004;-95
2023/06/23 08:08:20;;;;;;;5.50;2.90;;;;;;;;;;6162162;23;20017;-96
2023/06/23 08:10:46;;;;;;;4.93;3.15;;;;;;;;;;6163922;23;20221;-94
2023/06/23 08:13:12;;;;;;;4.22;2.70;;;;;;;;;;6185884;23;20376;-94
2023/06/23 08:15:52;;;;;;;5.35;3.33;;;;;;;;;;6188009;23;20016;-94
2023/06/23 08:18:24;;;;;;;13.13;3.58;;;;;;;;;;6186397;23;20008;-94
2023/06/23 08:20:51;;;;;;;5.90;2.75;;;;;;;;;;6163967;23;20468;-94
2023/06/23 08:23:17;;;;;;;5.20;2.80;;;;;;;;;;6162683;23;20541;-95
2023/06/23 08:25:44;;;;;;;7.60;3.35;;;;;;;;;;6187644;23;20446;-94
2023/06/23 08:28:10;;;;;;;5.25;3.15;;;;;;;;;;6163314;23;20439;-94
2023/06/23 08:30:37;;;;;;;3.15;2.83;;;;;;;;;;6188153;23;20009;-95
2023/06/23 08:33:03;;;;;;;5.88;2.70;;;;;;;;;;6161774;23;20017;-95
2023/06/23 08:35:36;;;;;;;3.95;2.78;;;;;;;;;;6164238;23;20020;-95
2023/06/23 08:38:02;;;;;;;4.65;3.10;;;;;;;;;;6165128;23;20438;-96
2023/06/23 08:40:28;;;;;;;4.40;3.28;;;;;;;;;;6161631;23;20522;-96
2023/06/23 08:42:55;;;;;;;4.63;2.65;;;;;;;;;;6189023;23;20060;-94
2023/06/23 08:45:23;;;;;;;6.97;3.10;;;;;;;;;;6163598;23;20512;-95
2023/06/23 08:47:51;;;;;;;5.88;2.80;;;;;;;;;;6190551;22;20035;-94
2023/06/23 08:50:21;;;;;;;6.80;3.10;;;;;;;;;;6245210;23;20012;-94
2023/06/23 08:52:48;;;;;;;5.18;3.65;;;;;;;;;;6221054;23;20073;-94
2023/06/23 08:55:18;;;;;;;8.25;3.30;;;;;;;;;;6216386;23;20008;-94
2023/06/23 08:57:45;;;;;;;5.30;3.63;;;;;;;;;;6190546;23;20039;-94
2023/06/23 09:00:12;;;;;;;4.57;3.38;;;;;;;;;;6191617;23;20013;-95
2023/06/23 09:02:39;;;;;;;6.18;3.90;;;;;;;;;;6216791;23;20445;-95
2023/06/23 09:05:05;;;;;;;3.70;3.28;;;;;;;;;;6190261;23;20401;-95
2023/06/23 09:07:31;;;;;;;6.63;3.38;;;;;;;;;;6190506;23;20015;-95
2023/06/23 09:10:02;;;;;;;6.85;3.28;;;;;;;;;;6194180;23;20015;-94
2023/06/23 09:13:00;;;;;;;6.50;3.25;;;;;;;;;;6199697;23;20008;-95
2023/06/23 09:15:27;;;;;;;6.65;2.92;;;;;;;;;;6073358;23;20017;-95
2023/06/23 09:18:04;;;;;;;5.35;2.95;;;;;;;;;;6188344;23;20016;-94
2023/06/23 09:20:31;;;;;;;6.20;3.05;;;;;;;;;;6225272;23;20006;-95
2023/06/23 09:23:01;;;;;;;4.38;3.03;;;;;;;;;;6197677;23;20004;-95
2023/06/23 09:25:43;;;;;;;5.80;3.25;;;;;;;;;;6227823;23;20034;-95
2023/06/23 09:28:39;;;;;;;4.07;2.80;;;;;;;;;;6221684;23;20354;-94
2023/06/23 09:31:16;;;;;;;6.07;3.10;;;;;;;;;;6191447;23;20125;-94
2023/06/23 09:33:56;;;;;;;4.05;2.65;;;;;;;;;;6223800;23;20339;-95
2023/06/23 09:36:26;;;;;;;3.55;3.13;;;;;;;;;;6196788;23;20023;-96
2023/06/23 09:38:56;;;;;;;4.30;3.13;;;;;;;;;;6220892;23;20057;-96
2023/06/23 09:41:24;;;;;;;5.00;2.60;;;;;;;;;;6199089;23;20016;-95
2023/06/23 09:43:56;;;;;;;4.88;2.05;;;;;;;;;;6217984;23;20317;-94
2023/06/23 09:46:27;;;;;;;3.22;2.80;;;;;;;;;;6198343;23;20400;-94
2023/06/23 09:48:53;;;;;;;2.90;2.38;;;;;;;;;;6201314;22;20028;-94
2023/06/23 09:54:09;;;;;;;2.90;2.60;;;;;;;;;;6174774;23;20078;-94
2023/06/23 09:56:37;;;;;;;4.10;2.40;;;;;;;;;;6205357;23;20016;-93
2023/06/23 09:59:04;;;;;;;7.93;2.40;;;;;;;;;;6230703;23;20008;-96
2023/06/23 10:01:39;;;;;;;3.45;2.65;;;;;;;;;;6233588;23;20007;-96
2023/06/23 10:04:05;;;;;;;;;;;;;;;;;;6232682;23;20004;-96
2023/06/23 10:06:37;;;;;;;4.13;2.63;;;;;;;;;;6226623;23;19935;-96
2023/06/23 10:09:25;;;;;;;3.47;2.55;;;;;;;;;;6230198;23;20019;-95
2023/06/23 10:11:51;;;;;;;7.20;2.65;;;;;;;;;;6223636;23;20000;-96
2023/06/23 10:14:18;;;;;;;3.42;2.35;;;;;;;;;;6199756;23;20469;-96
2023/06/23 10:16:57;;;;;;;3.83;2.15;;;;;;;;;;6198040;23;20022;-95
2023/06/23 10:19:30;;;;;;;;;;;;;;;;;;6249805;23;20442;-96
2023/06/23 10:21:59;;;;;;;5.97;2.90;;;;;;;;;;6221241;23;19900;-96
2023/06/23 10:24:46;;;;;;;7.15;2.95;;;;;;;;;;6196222;23;20556;-96
2023/06/23 10:27:25;;;;;;;6.07;2.35;;;;;;;;;;6247968;23;20470;-96
2023/06/23 10:30:12;;;;;;;2.53;2.30;;;;;;;;;;6221320;23;20086;-96
2023/06/23 10:32:42;;;;;;;3.38;2.53;;;;;;;;;;6197628;23;20397;-96
2023/06/23 10:35:10;;;;;;;5.95;2.78;;;;;;;;;;6223871;23;20012;-96
2023/06/23 10:37:36;;;;;;;5.45;2.60;;;;;;;;;;6221013;23;20004;-96
2023/06/23 10:40:04;;;;;;;5.55;3.08;;;;;;;;;;6219954;23;20011;-96
2023/06/23 10:42:56;;;;;;;5.00;2.92;;;;;;;;;;6222650;23;20060;-94
2023/06/23 10:45:26;;;;;;;4.10;2.60;;;;;;;;;;6217189;23;20008;-96
2023/06/23 10:47:53;;;;;;;4.30;3.00;;;;;;;;;;6215040;22;20428;-96
2023/06/23 10:50:23;;;;;;;5.90;2.70;;;;;;;;;;6217534;22;20216;-96
2023/06/23 10:52:49;;;;;;;4.57;3.13;;;;;;;;;;6193567;23;20070;-96
2023/06/23 10:55:34;;;;;;;4.10;2.70;;;;;;;;;;6193636;23;20441;-96
2023/06/23 10:58:19;;;;;;;7.20;3.47;;;;;;;;;;6216685;23;20015;-96
2023/06/23 11:00:55;;;;;;;5.78;3.10;;;;;;;;;;6222241;23;20031;-96
2023/06/23 11:03:27;;;;;;;3.28;2.97;;;;;;;;;;6220390;23;20182;-96
2023/06/23 11:05:57;;;;;;;4.68;3.78;;;;;;;;;;6220000;23;20000;-96
2023/06/23 11:08:35;;;;;;;6.97;3.30;;;;;;;;;;6220843;23;20012;-95
2023/06/23 11:11:39;;;;;;;7.95;4.72;;;;;;;;;;6215274;23;20015;-94
2023/06/23 11:14:17;;;;;;;12.65;4.38;;;;;;;;;;6217873;23;19988;-94
2023/06/23 11:16:50;;;;;;;7.47;4.10;;;;;;;;;;6244632;23;20390;-94
2023/06/23 11:19:29;;;;;;;5.45;4.63;;;;;;;;;;6214708;23;20019;-95
2023/06/23 11:22:08;;;;;;;5.75;3.88;;;;;;;;;;6213282;23;20008;-95
2023/06/23 11:24:54;;;;;;;6.07;4.20;;;;;;;;;;6217059;23;20004;-94
2023/06/23 11:27:21;;;;;;;6.50;4.20;;;;;;;;;;6219771;23;20015;-95
2023/06/23 11:30:07;;;;;;;10.00;4.25;;;;;;;;;;6188775;23;20019;-95
2023/06/23 11:32:39;;;;;;;8.32;4.60;;;;;;;;;;6139960;23;20004;-94
2023/06/23 11:35:08;;;;;;;6.50;4.82;;;;;;;;;;6220307;23;20010;-95
2023/06/23 11:37:34;;;;;;;11.23;4.57;;;;;;;;;;6217140;23;20668;-95
2023/06/23 11:40:01;;;;;;;6.22;4.55;;;;;;;;;;6218873;23;20012;-95
2023/06/23 11:42:27;;;;;;;8.75;5.50;;;;;;;;;;6190073;23;20004;-95
2023/06/23 11:44:57;;;;;;;9.07;4.93;;;;;;;;;;6244725;23;20070;-95
2023/06/23 11:47:36;;;;;;;4.55;4.00;;;;;;;;;;6192714;23;20012;-94
2023/06/23 11:50:10;;;;;;;9.18;4.50;;;;;;;;;;6192953;22;20436;-95
2023/06/23 11:52:36;;;;;;;10.15;5.32;;;;;;;;;;6161181;23;20450;-94
2023/06/23 11:55:03;;;;;;;8.05;4.45;;;;;;;;;;6159852;23;20023;-94
2023/06/23 11:57:31;;;;;;;12.27;4.80;;;;;;;;;;6159984;23;20036;-94
2023/06/23 11:59:57;;;;;;;4.93;4.07;;;;;;;;;;6184462;23;20012;-94
2023/06/23 12:02:23;;;;;;;12.85;5.00;;;;;;;;;;6159791;23;20035;-94
2023/06/23 12:04:49;;;;;;;6.97;3.97;;;;;;;;;;6160441;23;20434;-95
2023/06/23 12:07:15;;;;;;;4.78;3.63;;;;;;;;;;6160957;23;20015;-96
2023/06/23 12:09:42;;;;;;;9.40;4.05;;;;;;;;;;6163062;23;20013;-96
2023/06/23 12:12:09;;;;;;;5.18;4.15;;;;;;;;;;6183716;23;20009;-96
2023/06/23 12:15:07;;;;;;;6.35;4.15;;;;;;;;;;6161992;23;20431;-96
2023/06/23 12:17:42;;;;;;;4.38;3.55;;;;;;;;;;6164157;23;20095;-94
2023/06/23 12:20:11;;;;;;;7.10;3.20;;;;;;;;;;6190469;23;20463;-95
2023/06/23 12:22:38;;;;;;;5.05;3.65;;;;;;;;;;6174062;23;20315;-95
2023/06/23 12:25:05;;;;;;;8.63;3.25;;;;;;;;;;6184182;23;20343;-95
2023/06/23 12:27:31;;;;;;;4.70;3.13;;;;;;;;;;6159901;23;20103;-95
2023/06/23 12:30:14;;;;;;;4.22;3.03;;;;;;;;;;6160221;23;20456;-95
2023/06/23 12:32:40;;;;;;;4.53;3.13;;;;;;;;;;6185247;23;20066;-95
2023/06/23 12:35:09;;;;;;;4.70;2.70;;;;;;;;;;6161449;23;20377;-96
2023/06/23 12:37:48;;;;;;;4.80;2.88;;;;;;;;;;6184915;23;20374;-95
2023/06/23 12:40:30;;;;;;;4.07;2.63;;;;;;;;;;6183403;23;20624;-95
2023/06/23 12:42:58;;;;;;;3.97;2.80;;;;;;;;;;6160959;23;20004;-95
2023/06/23 12:45:24;;;;;;;4.20;3.10;;;;;;;;;;6184508;23;20430;-95
2023/06/23 12:47:52;;;;;;;2.92;2.50;;;;;;;;;;6184804;23;20012;-94
2023/06/23 12:50:32;;;;;;;4.88;2.67;;;;;;;;;;6162774;22;20027;-94
2023/06/23 12:53:01;;;;;;;3.85;2.60;;;;;;;;;;6185653;23;20013;-95
2023/06/23 12:55:28;;;;;;;3.45;2.58;;;;;;;;;;6184636;23;20306;-95
2023/06/23 12:57:54;;;;;;;2.40;2.20;;;;;;;;;;6159997;23;20350;-96
2023/06/23 13:00:24;;;;;;;6.50;2.30;;;;;;;;;;6183837;23;20004;-94
2023/06/23 13:02:52;;;;;;;4.07;2.45;;;;;;;;;;6159897;23;20028;-94
2023/06/23 13:05:19;;;;;;;3.83;2.40;;;;;;;;;;6185192;23;20599;-95
2023/06/23 13:07:45;;;;;;;4.20;2.28;;;;;;;;;;6185332;23;20382;-95
2023/06/23 13:10:12;;;;;;;5.22;2.58;;;;;;;;;;6159996;23;20122;-95
2023/06/23 13:12:38;;;;;;;7.65;2.35;;;;;;;;;;6159832;23;20017;-94
2023/06/23 13:15:04;;;;;;;3.17;2.75;;;;;;;;;;6160424;23;20508;-96
2023/06/23 13:17:31;;;;;;;7.78;2.63;;;;;;;;;;6184629;23;20529;-95
2023/06/23 13:19:58;;;;;;;3.20;2.47;;;;;;;;;;6183819;23;20064;-96
2023/06/23 13:22:24;;;;;;;3.45;2.25;;;;;;;;;;6185351;23;20092;-96
2023/06/23 13:24:50;;;;;;;5.88;2.40;;;;;;;;;;6184270;23;20066;-95
2023/06/23 13:27:16;;;;;;;6.88;2.47;;;;;;;;;;6212528;23;20239;-95
2023/06/23 13:29:43;;;;;;;5.78;2.40;;;;;;;;;;6159841;23;20017;-95
2023/06/23 13:32:09;;;;;;;3.83;2.33;;;;;;;;;;6184538;23;20013;-95
2023/06/23 13:34:36;;;;;;;6.63;2.38;;;;;;;;;;6158577;23;20416;-96
2023/06/23 13:37:08;;;;;;;3.05;2.30;;;;;;;;;;6183640;23;20009;-95
2023/06/23 13:39:35;;;;;;;5.43;2.72;;;;;;;;;;6158264;23;20334;-96
2023/06/23 13:42:01;;;;;;;4.80;2.47;;;;;;;;;;6183631;23;20005;-96
2023/06/23 13:44:27;;;;;;;3.60;1.77;;;;;;;;;;6160968;23;20008;-95
2023/06/23 13:46:56;;;;;;;7.10;2.28;;;;;;;;;;6183677;23;20091;-96
2023/06/23 13:49:23;;;;;;;5.57;2.33;;;;;;;;;;6162997;22;20302;-94
2023/06/23 13:51:49;;;;;;;3.53;2.15;;;;;;;;;;6183353;23;20087;-95
2023/06/23 13:54:15;;;;;;;5.70;2.45;;;;;;;;;;6160987;23;20011;-95
2023/06/23 13:56:41;;;;;;;3.97;2.40;;;;;;;;;;6183538;23;20122;-95
2023/06/23 13:59:07;;;;;;;3.28;2.08;;;;;;;;;;6161134;23;20396;-96
2023/06/23 14:01:37;;;;;;;2.63;1.90;;;;;;;;;;6184517;23;20048;-95
2023/06/23 14:04:03;;;;;;;2.90;1.77;;;;;;;;;;6160916;23;20009;-96
2023/06/23 14:06:29;;;;;;;6.32;2.20;;;;;;;;;;6160759;23;20068;-96
2023/06/23 14:08:56;;;;;;;4.97;1.95;;;;;;;;;;6162174;23;20016;-94
2023/06/23 14:11:23;;;;;;;6.07;2.20;;;;;;;;;;6185015;23;20011;-95
2023/06/23 14:13:49;;;;;;;5.43;1.88;;;;;;;;;;6186291;23;20008;-95
2023/06/23 14:16:16;;;;;;;4.57;2.05;;;;;;;;;;6212866;23;20001;-95
2023/06/23 14:18:43;;;;;;;3.03;2.20;;;;;;;;;;6187206;23;20009;-95
2023/06/23 14:21:16;;;;;;;4.07;2.17;;;;;;;;;;6214414;23;20457;-96
2023/06/23 14:23:42;;;;;;;3.63;2.30;;;;;;;;;;6188591;23;20004;-95
2023/06/23 14:26:08;;;;;;;3.63;2.20;;;;;;;;;;6164105;23;20013;-95
2023/06/23 14:28:38;;;;;;;4.28;2.15;;;;;;;;;;6165322;23;20012;-95
2023/06/23 14:31:41;;;;;;;2.63;1.98;;;;;;;;;;6165772;23;20040;-95
2023/06/23 14:34:11;;;;;;;3.05;1.90;;;;;;;;;;6192484;23;20004;-96
2023/06/23 14:36:39;;;;;;;5.18;2.05;;;;;;;;;;6194517;23;20012;-95
2023/06/23 14:39:05;;;;;;;4.53;2.17;;;;;;;;;;6168390;23;20017;-96
2023/06/23 14:41:31;;;;;;;4.25;2.30;;;;;;;;;;6198153;23;20008;-96
2023/06/23 14:44:01;;;;;;;3.88;2.50;;;;;;;;;;6224161;23;19997;-94
2023/06/23 14:46:27;;;;;;;3.08;2.22;;;;;;;;;;6196062;23;20083;-96
2023/06/23 14:48:58;;;;;;;3.92;2.20;;;;;;;;;;6195992;22;20084;-93
2023/06/23 14:51:27;;;;;;;2.38;1.90;;;;;;;;;;6165708;23;20008;-94
2023/06/23 14:53:57;;;;;;;3.30;1.88;;;;;;;;;;6188796;23;20013;-94
2023/06/23 14:56:45;;;;;;;3.85;2.03;;;;;;;;;;6191389;23;20023;-96
2023/06/23 14:59:11;;;;;;;5.70;2.22;;;;;;;;;;6181001;23;20435;-95